Time;durP1;ratioP1;P1;durP2;ratioP2;P2;SDS_P1;SDS_P2;PMS_P1;PMS_P2;Temp;Humidity;BMP_temperature;BMP_pressure;BME280_temperature;BME280_humidity;BME280_pressure;Samples;Min_cycle;Max_cycle;Signal;HPM_P1;HPM_P2
2021/03/07 00:02:17;;;;;;;;;;;;;;;-2.45;57.98;102326.27;1771520;81;20224;-51
2021/03/07 00:04:44;;;;;;;;;;;;;;;-2.41;58.17;102319.44;1771602;81;23611;-51
2021/03/07 00:07:11;;;;;;;;;;;;;;;-2.37;58.43;102316.11;1771496;81;20216;-51
2021/03/07 00:09:41;;;;;;;;;;;;;;;-2.34;58.64;102315.35;1771556;81;20252;-51
2021/03/07 00:12:08;;;;;;;;;;;;;;;-2.30;58.67;102319.91;1771554;81;20232;-51
2021/03/07 00:14:37;;;;;;;;;;;;;;;-2.26;58.51;102313.94;1771542;81;20244;-51
2021/03/07 00:17:04;;;;;;;;;;;;;;;-2.23;58.38;102313.19;1771572;81;21548;-50
2021/03/07 00:19:34;;;;;;;;;;;;;;;-2.20;58.32;102321.20;1771495;81;20237;-50
2021/03/07 00:22:01;;;;;;;;;;;;;;;-2.19;58.13;102319.97;1771589;81;20480;-51
2021/03/07 00:24:28;;;;;;;;;;;;;;;-2.19;57.97;102325.63;1771570;81;20307;-50
2021/03/07 00:26:55;;;;;;;;;;;;;;;-2.19;57.75;102318.66;1771700;81;20299;-51
2021/03/07 00:29:22;;;;;;;;;;;;;;;-2.19;57.56;102319.05;1771558;81;21222;-51
2021/03/07 00:31:50;;;;;;;;;;;;;;;-2.19;57.39;102319.05;1771646;81;20304;-51
2021/03/07 00:34:17;;;;;;;;;;;;;;;-2.21;57.31;102312.44;1770278;81;20291;-51
2021/03/07 00:36:45;;;;;;;;;;;;;;;-2.21;57.29;102307.18;1766122;81;20376;-51
2021/03/07 00:39:12;;;;;;;;;;;;;;;-2.21;57.29;102308.89;1766182;81;20231;-51
2021/03/07 00:41:43;;;;;;;;;;;;;;;-2.24;57.40;102306.14;1766073;81;21208;-51
2021/03/07 00:44:11;;;;;;;;;;;;;;;-2.31;57.60;102307.20;1766714;81;20220;-51
2021/03/07 00:46:40;;;;;;;;;;;;;;;-2.36;57.79;102299.51;1767698;81;20270;-51
2021/03/07 00:49:08;;;;;;;;;;;;;;;-2.36;57.92;102306.08;1767749;81;20216;-51
2021/03/07 00:51:35;;;;;;;;;;;;;;;-2.37;58.16;102307.34;1767694;81;20240;-51
2021/03/07 00:54:03;;;;;;;;;;;;;;;-2.36;58.27;102310.45;1767798;81;21207;-51
2021/03/07 00:56:31;;;;;;;;;;;;;;;-2.36;58.52;102299.51;1767743;81;20629;-51
2021/03/07 00:58:58;;;;;;;;;;;;;;;-2.35;58.62;102306.55;1767792;81;20236;-49
2021/03/07 01:01:25;;;;;;;;;;;;;;;-2.35;58.76;102302.62;1767600;81;20221;-50
2021/03/07 01:03:53;;;;;;;;;;;;;;;-2.34;58.85;102295.22;1767855;81;20284;-50
2021/03/07 01:06:21;;;;;;;;;;;;;;;-2.35;59.01;102294.73;1767649;81;21707;-51
2021/03/07 01:08:48;;;;;;;;;;;;;;;-2.37;59.22;102296.41;1767724;81;20220;-50
2021/03/07 01:11:15;;;;;;;;;;;;;;;-2.43;59.47;102286.95;1767700;81;20216;-51
2021/03/07 01:13:44;;;;;;;;;;;;;;;-2.48;59.73;102291.11;1767633;81;20252;-49
2021/03/07 01:16:11;;;;;;;;;;;;;;;-2.54;60.15;102293.45;1767791;81;20220;-50
2021/03/07 01:18:40;;;;;;;;;;;;;;;-2.57;60.44;102298.17;1767636;81;21344;-50
2021/03/07 01:21:09;;;;;;;;;;;;;;;-2.62;60.64;102292.70;1767644;81;20224;-50
2021/03/07 01:23:37;;;;;;;;;;;;;;;-2.64;61.04;102287.80;1767804;81;20274;-50
2021/03/07 01:26:05;;;;;;;;;;;;;;;-2.66;61.29;102277.65;1767798;81;20303;-51
2021/03/07 01:28:32;;;;;;;;;;;;;;;-2.67;61.76;102281.11;1767672;81;20292;-50
2021/03/07 01:30:59;;;;;;;;;;;;;;;-2.69;62.16;102285.39;1767802;81;21385;-50
2021/03/07 01:33:28;;;;;;;;;;;;;;;-2.69;62.44;102285.39;1767587;81;20216;-51
2021/03/07 01:36:01;;;;;;;;;;;;;;;-2.73;62.74;102279.53;1771969;79;20228;-51
2021/03/07 01:38:25;;;;;;;;;;;;;;;-2.76;62.80;102282.02;1772466;81;20212;-51
2021/03/07 01:40:52;;;;;;;;;;;;;;;-2.80;63.05;102281.37;1773114;81;20228;-51
2021/03/07 01:43:20;;;;;;;;;;;;;;;-2.88;63.41;102281.03;1772358;81;21537;-51
2021/03/07 01:45:48;;;;;;;;;;;;;;;-2.92;63.51;102280.41;1742474;82;20246;-51
2021/03/07 01:48:17;;;;;;;;;;;;;;;-2.95;63.65;102281.19;1742556;82;20135;-51
2021/03/07 01:50:47;;;;;;;;;;;;;;;-2.98;63.76;102282.77;1742482;82;20218;-50
2021/03/07 01:53:16;;;;;;;;;;;;;;;-3.00;64.03;102278.75;1742563;82;20243;-50
2021/03/07 01:55:44;;;;;;;;;;;;;;;-3.01;64.23;102275.64;1742486;82;21258;-51
2021/03/07 01:58:21;;;;;;;;;;;;;;;-3.02;64.70;102269.51;1742564;82;20210;-51
2021/03/07 02:00:48;;;;;;;;;;;;;;;-3.02;65.30;102263.34;1742540;82;20498;-51
2021/03/07 02:03:16;;;;;;;;;;;;;;;-3.02;65.77;102258.09;1742418;82;20247;-51
2021/03/07 02:05:44;;;;;;;;;;;;;;;-3.03;65.97;102257.62;1742577;82;20266;-51
2021/03/07 02:08:12;;;;;;;;;;;;;;;-3.02;66.35;102258.09;1742548;82;21212;-50
2021/03/07 02:10:52;;;;;;;;;;;;;;;-3.03;66.69;102264.17;1742552;82;20227;-50
2021/03/07 02:13:22;;;;;;;;;;;;;;;-3.05;67.10;102256.66;1741935;81;20234;-51
2021/03/07 02:15:54;;;;;;;;;;;;;;;-3.08;67.30;102257.83;1742574;82;20223;-50
2021/03/07 02:18:22;;;;;;;;;;;;;;;-3.09;67.71;102249.47;1742530;82;20220;-50
2021/03/07 02:20:52;;;;;;;;;;;;;;;-3.11;67.96;102259.01;1737896;82;21668;-51
2021/03/07 02:23:21;;;;;;;;;;;;;;;-3.11;68.16;102255.95;1742272;82;20231;-50
2021/03/07 02:25:49;;;;;;;;;;;;;;;-3.11;68.22;102250.70;1742659;82;20239;-50
2021/03/07 02:28:17;;;;;;;;;;;;;;;-3.14;68.30;102256.25;1742738;82;20825;-51
2021/03/07 02:30:45;;;;;;;;;;;;;;;-3.17;68.34;102259.22;1742791;82;20212;-51
2021/03/07 02:33:18;;;;;;;;;;;;;;;-3.20;68.46;102251.21;1742739;82;21665;-50
2021/03/07 02:35:49;;;;;;;;;;;;;;;-3.23;68.61;102247.53;1739855;82;20713;-50
2021/03/07 02:38:17;;;;;;;;;;;;;;;-3.28;68.85;102242.06;1738233;82;20228;-50
2021/03/07 02:40:45;;;;;;;;;;;;;;;-3.31;69.05;102241.93;1738159;82;20219;-51
2021/03/07 02:43:13;;;;;;;;;;;;;;;-3.34;69.39;102240.48;1738297;82;20230;-51
2021/03/07 02:45:43;;;;;;;;;;;;;;;-3.36;69.69;102240.83;1738183;82;21215;-51
2021/03/07 02:48:12;;;;;;;;;;;;;;;-3.38;69.89;102238.12;1738173;82;20487;-51
2021/03/07 02:50:40;;;;;;;;;;;;;;;-3.38;70.29;102242.48;1738192;82;20147;-51
2021/03/07 02:53:09;;;;;;;;;;;;;;;-3.38;70.42;102237.23;1738249;82;20234;-51
2021/03/07 02:55:37;;;;;;;;;;;;;;;-3.39;70.62;102227.58;1713731;82;20214;-51
2021/03/07 02:58:08;;;;;;;;;;;;;;;-3.35;70.72;102236.06;1738164;82;21454;-51
2021/03/07 03:00:36;;;;;;;;;;;;;;;-3.33;70.90;102230.47;1738234;82;20323;-51
2021/03/07 03:03:08;;;;;;;;;;;;;;;-3.31;70.80;102235.38;1738120;82;20378;-51
2021/03/07 03:05:38;;;;;;;;;;;;;;;-3.31;71.07;102234.06;1738273;82;20926;-51
2021/03/07 03:08:05;;;;;;;;;;;;;;;-3.32;71.01;102233.18;1738179;82;20230;-51
2021/03/07 03:10:33;;;;;;;;;;;;;;;-3.31;71.00;102232.35;1738271;82;21207;-51
2021/03/07 03:13:01;;;;;;;;;;;;;;;-3.28;70.99;102234.20;1738079;82;20229;-51
2021/03/07 03:15:29;;;;;;;;;;;;;;;-3.26;71.22;102235.59;1738232;82;20238;-51
2021/03/07 03:17:57;;;;;;;;;;;;;;;-3.25;71.30;102235.64;1738101;82;20238;-50
2021/03/07 03:20:25;;;;;;;;;;;;;;;-3.24;71.41;102229.57;1738147;82;20285;-51
2021/03/07 03:22:52;;;;;;;;;;;;;;;-3.22;71.45;102230.97;1713362;82;21214;-50
2021/03/07 03:25:19;;;;;;;;;;;;;;;-3.21;71.59;102228.39;1738115;82;20239;-50
2021/03/07 03:27:46;;;;;;;;;;;;;;;-3.19;71.64;102224.54;1738174;82;20218;-50
2021/03/07 03:30:16;;;;;;;;;;;;;;;-3.20;72.10;102222.34;1738117;82;20290;-50
2021/03/07 03:32:43;;;;;;;;;;;;;;;-3.27;72.43;102225.50;1738230;82;20226;-50
2021/03/07 03:35:16;;;;;;;;;;;;;;;-3.34;72.81;102219.06;1743592;81;21506;-50
2021/03/07 03:37:43;;;;;;;;;;;;;;;-3.40;73.12;102221.84;1762056;81;20217;-50
2021/03/07 03:40:17;;;;;;;;;;;;;;;-3.46;73.52;102215.47;1762113;81;20220;-51
2021/03/07 03:42:46;;;;;;;;;;;;;;;-3.47;73.75;102224.16;1762106;81;20228;-50
2021/03/07 03:45:13;;;;;;;;;;;;;;;-3.49;73.98;102219.27;1787476;80;20234;-50
2021/03/07 03:47:43;;;;;;;;;;;;;;;-3.46;74.25;102224.64;1769172;80;21697;-50
2021/03/07 03:50:11;;;;;;;;;;;;;;;-3.45;74.29;102221.62;1793416;80;20222;-50
2021/03/07 03:52:38;;;;;;;;;;;;;;;-3.45;74.34;102213.33;1793390;80;20222;-50
2021/03/07 03:55:08;;;;;;;;;;;;;;;-3.42;74.27;102212.58;1793390;80;20221;-50
2021/03/07 03:57:35;;;;;;;;;;;;;;;-3.42;74.12;102212.58;1793390;79;20230;-51
2021/03/07 04:00:06;;;;;;;;;;;;;;;-3.42;74.19;102205.14;1793434;79;21201;-51
2021/03/07 04:02:34;;;;;;;;;;;;;;;-3.42;74.65;102206.45;1793265;80;20226;-51
2021/03/07 04:05:05;;;;;;;;;;;;;;;-3.42;74.83;102205.14;1764288;81;20213;-51
2021/03/07 04:07:32;;;;;;;;;;;;;;;-3.45;75.18;102201.52;1794592;80;20222;-51
2021/03/07 04:10:00;;;;;;;;;;;;;;;-3.45;75.43;102197.59;1795636;80;20250;-51
2021/03/07 04:12:27;;;;;;;;;;;;;;;-3.45;75.58;102194.97;1764262;81;21547;-51
2021/03/07 04:14:54;;;;;;;;;;;;;;;-3.46;75.66;102197.53;1764154;81;20225;-51
2021/03/07 04:17:23;;;;;;;;;;;;;;;-3.48;75.77;102192.20;1764328;81;20153;-51
2021/03/07 04:19:51;;;;;;;;;;;;;;;-3.51;76.02;102192.07;1764143;81;20228;-51
2021/03/07 04:22:19;;;;;;;;;;;;;;;-3.51;76.22;102188.56;1764253;81;20217;-51
2021/03/07 04:24:47;;;;;;;;;;;;;;;-3.51;76.30;102184.63;1764200;81;21389;-50
2021/03/07 04:27:15;;;;;;;;;;;;;;;-3.51;76.50;102188.13;1764189;81;20289;-50
2021/03/07 04:29:42;;;;;;;;;;;;;;;-3.49;76.60;102182.55;1764198;81;20481;-50
2021/03/07 04:32:10;;;;;;;;;;;;;;;-3.51;76.74;102175.02;1764280;81;20222;-50
2021/03/07 04:34:38;;;;;;;;;;;;;;;-3.50;76.91;102182.49;1795249;80;20213;-50
2021/03/07 04:37:05;;;;;;;;;;;;;;;-3.47;76.88;102174.33;1782455;80;22501;-50
2021/03/07 04:39:32;;;;;;;;;;;;;;;-3.39;76.77;102173.80;1750207;82;20213;-50
2021/03/07 04:42:01;;;;;;;;;;;;;;;-3.31;76.54;102171.10;1772881;81;20224;-51
2021/03/07 04:44:30;;;;;;;;;;;;;;;-3.23;76.29;102173.64;1752027;81;20234;-50
2021/03/07 04:46:59;;;;;;;;;;;;;;;-3.17;75.92;102170.00;1742302;82;20273;-50
2021/03/07 04:49:28;;;;;;;;;;;;;;;-3.12;75.63;102166.68;1742422;82;22099;-50
2021/03/07 04:51:55;;;;;;;;;;;;;;;-3.07;75.37;102161.22;1742215;82;20218;-50
2021/03/07 04:54:22;;;;;;;;;;;;;;;-3.00;75.30;102164.58;1742361;82;20226;-50
2021/03/07 04:56:49;;;;;;;;;;;;;;;-2.78;75.19;102157.62;1742238;82;20222;-51
2021/03/07 04:59:17;;;;;;;;;;;;;;;-2.62;74.31;102160.08;1742338;82;20239;-50
2021/03/07 05:01:44;;;;;;;;;;;;;;;-2.55;73.72;102161.64;1742241;82;21726;-51
2021/03/07 05:04:12;;;;;;;;;;;;;;;-2.48;73.60;102166.34;1742274;82;20218;-50
2021/03/07 05:06:41;;;;;;;;;;;;;;;-2.35;73.48;102169.05;1742292;82;20250;-50
2021/03/07 05:09:09;;;;;;;;;;;;;;;-2.21;73.12;102164.36;1742292;82;20230;-51
2021/03/07 05:11:37;;;;;;;;;;;;;;;-2.06;72.42;102171.56;1742263;82;20222;-50
2021/03/07 05:14:05;;;;;;;;;;;;;;;-1.96;71.77;102176.77;1742313;82;21217;-50
2021/03/07 05:16:33;;;;;;;;;;;;;;;-1.88;71.13;102170.47;1742222;82;20238;-50
2021/03/07 05:19:01;;;;;;;;;;;;;;;-1.85;70.80;102178.50;1742189;82;20243;-51
2021/03/07 05:21:30;;;;;;;;;;;;;;;-1.78;70.42;102181.84;1742375;82;20230;-51
2021/03/07 05:24:00;;;;;;;;;;;;;;;-1.78;70.15;102184.88;1742273;82;20230;-51
2021/03/07 05:26:28;;;;;;;;;;;;;;;-1.77;70.17;102186.27;1742309;82;21609;-51
2021/03/07 05:28:56;;;;;;;;;;;;;;;-1.66;69.95;102182.73;1742216;82;20238;-51
2021/03/07 05:31:23;;;;;;;;;;;;;;;-1.50;69.83;102188.59;1742345;82;20218;-51
2021/03/07 05:33:50;;;;;;;;;;;;;;;-1.34;69.45;102195.32;1742211;82;20231;-51
2021/03/07 05:36:18;;;;;;;;;;;;;;;-1.18;69.25;102197.69;1738040;82;20223;-51
2021/03/07 05:38:45;;;;;;;;;;;;;;;-1.05;68.72;102197.72;1731826;83;21344;-51
2021/03/07 05:41:12;;;;;;;;;;;;;;;-0.88;68.49;102206.22;1731770;82;20515;-50
2021/03/07 05:43:40;;;;;;;;;;;;;;;-0.69;67.93;102198.97;1736915;81;20295;-52
2021/03/07 05:46:08;;;;;;;;;;;;;;;-0.58;67.58;102208.12;1762056;81;20394;-50
2021/03/07 05:48:36;;;;;;;;;;;;;;;-0.43;67.36;102204.23;1762055;81;20228;-50
2021/03/07 05:51:03;;;;;;;;;;;;;;;-0.36;67.11;102198.75;1761958;81;21215;-51
2021/03/07 05:53:31;;;;;;;;;;;;;;;-0.32;67.26;102200.23;1761988;81;20224;-50
2021/03/07 05:55:58;;;;;;;;;;;;;;;-0.18;67.36;102199.77;1762116;81;20224;-50
2021/03/07 05:58:26;;;;;;;;;;;;;;;0.03;67.22;102199.59;1762257;81;20995;-51
2021/03/07 06:00:54;;;;;;;;;;;;;;;0.22;67.01;102202.78;1762257;81;20492;-51
2021/03/07 06:03:22;;;;;;;;;;;;;;;0.32;66.63;102194.33;1762155;81;21354;-51
2021/03/07 06:05:50;;;;;;;;;;;;;;;0.44;66.65;102199.08;1762105;81;20267;-51
2021/03/07 06:08:19;;;;;;;;;;;;;;;0.56;66.39;102194.59;1762237;81;20240;-51
2021/03/07 06:10:48;;;;;;;;;;;;;;;0.62;66.34;102198.72;1762197;81;20224;-51
2021/03/07 06:13:16;;;;;;;;;;;;;;;0.74;66.38;102199.95;1762148;81;20271;-52
2021/03/07 06:15:47;;;;;;;;;;;;;;;0.88;66.25;102200.34;1761843;81;21698;-52
2021/03/07 06:18:16;;;;;;;;;;;;;;;1.02;65.97;102188.43;1762112;81;20654;-52
2021/03/07 06:20:45;;;;;;;;;;;;;;;1.17;65.75;102192.33;1762238;81;20216;-52
2021/03/07 06:23:12;;;;;;;;;;;;;;;1.26;65.52;102178.94;1762190;81;20854;-53
2021/03/07 06:25:50;;;;;;;;;;;;;;;1.33;65.41;102181.31;1762313;81;20336;-52
2021/03/07 06:28:20;;;;;;;;;;;;;;;1.46;65.36;102173.72;1762113;81;21475;-51
2021/03/07 06:30:47;;;;;;;;;;;;;;;1.55;65.19;102181.88;1762226;81;20227;-51
2021/03/07 06:33:29;;;;;;;;;;;;;;;1.62;64.69;102175.00;1762166;81;20283;-51
2021/03/07 06:36:18;;;;;;;;;;;;;;;1.70;64.04;102173.02;1763640;80;20228;-51
2021/03/07 06:38:47;;;;;;;;;;;;;;;1.86;63.13;102173.36;1773078;81;20248;-52
2021/03/07 06:41:17;;;;;;;;;;;;;;;2.06;61.41;102172.53;1772948;81;21544;-51
2021/03/07 06:43:44;;;;;;;;;;;;;;;2.23;61.01;102172.91;1766640;80;20651;-51
2021/03/07 06:46:27;;;;;;;;;;;;;;;2.32;60.34;102169.58;1742357;82;20226;-52
2021/03/07 06:48:55;;;;;;;;;;;;;;;2.41;59.83;102172.86;1742411;82;20251;-51
2021/03/07 06:51:33;;;;;;;;;;;;;;;2.52;59.76;102166.02;1742447;82;20223;-51
2021/03/07 06:54:14;;;;;;;;;;;;;;;2.63;59.84;102161.40;1742550;82;23158;-52
2021/03/07 06:56:45;;;;;;;;;;;;;;;2.74;59.31;102150.58;1742387;82;20238;-52
2021/03/07 06:59:20;;;;;;;;;;;;;;;2.90;58.25;102146.91;1742337;82;20242;-52
2021/03/07 07:01:50;;;;;;;;;;;;;;;2.99;58.03;102149.77;1742378;82;20214;-52
2021/03/07 07:04:18;;;;;;;;;;;;;;;2.97;57.42;102151.45;1742324;82;20218;-51
2021/03/07 07:07:08;;;;;;;;;;;;;;;2.99;57.45;102145.34;1742426;82;21713;-51
2021/03/07 07:09:37;;;;;;;;;;;;;;;3.08;56.37;102140.64;1742281;82;20147;-52
2021/03/07 07:12:07;;;;;;;;;;;;;;;3.18;54.15;102139.06;1742375;82;20194;-52
2021/03/07 07:14:41;;;;;;;;;;;;;;;3.26;54.14;102137.88;1765347;81;20303;-52
2021/03/07 07:17:12;;;;;;;;;;;;;;;3.35;53.42;102135.37;1765936;81;20314;-52
2021/03/07 07:19:40;;;;;;;;;;;;;;;3.47;53.71;102129.83;1765949;81;21271;-51
2021/03/07 07:22:08;;;;;;;;;;;;;;;3.52;52.82;102121.52;1765753;81;20259;-50
2021/03/07 07:24:35;;;;;;;;;;;;;;;3.62;51.59;102116.80;1765989;81;20534;-52
2021/03/07 07:27:03;;;;;;;;;;;;;;;3.64;50.93;102115.06;1765862;81;20232;-52
2021/03/07 07:29:35;;;;;;;;;;;;;;;3.70;49.37;102115.59;1765904;81;20283;-52
2021/03/07 07:32:07;;;;;;;;;;;;;;;3.73;48.14;102105.94;1765756;81;21115;-52
2021/03/07 07:34:48;;;;;;;;;;;;;;;3.75;48.29;102106.39;1770974;80;20282;-51
2021/03/07 07:37:39;;;;;;;;;;;;;;;3.72;47.65;102106.80;1760067;80;20391;-53
2021/03/07 07:40:08;;;;;;;;;;;;;;;3.78;47.68;102097.15;1756117;81;20271;-52
2021/03/07 07:42:36;;;;;;;;;;;;;;;3.88;45.79;102101.73;1756225;81;20315;-52
2021/03/07 07:45:20;;;;;;;;;;;;;;;3.89;45.39;102089.34;1762970;81;21847;-53
2021/03/07 07:47:49;;;;;;;;;;;;;;;3.94;46.32;102085.89;1748147;82;20231;-52
2021/03/07 07:50:32;;;;;;;;;;;;;;;4.00;45.12;102085.09;1748082;82;20225;-52
2021/03/07 07:53:15;;;;;;;;;;;;;;;3.99;44.03;102085.97;1748203;82;20799;-52
2021/03/07 07:55:45;;;;;;;;;;;;;;;3.94;43.53;102082.33;1748277;81;20225;-52
2021/03/07 07:58:36;;;;;;;;;;;;;;;3.93;44.12;102076.16;1748089;82;21512;-52
2021/03/07 08:01:08;;;;;;;;;;;;;;;3.99;44.42;102077.55;1748129;82;20300;-52
2021/03/07 08:03:38;;;;;;;;;;;;;;;4.11;43.72;102074.63;1748071;82;20225;-52
2021/03/07 08:06:14;;;;;;;;;;;;;;;4.17;43.60;102070.72;1734580;82;20288;-51
2021/03/07 08:08:43;;;;;;;;;;;;;;;4.18;43.24;102067.19;1764596;81;20245;-51
2021/03/07 08:11:23;;;;;;;;;;;;;;;4.23;43.22;102057.96;1764837;81;22106;-51
2021/03/07 08:13:58;;;;;;;;;;;;;;;4.26;42.28;102058.87;1764778;81;20291;-52
2021/03/07 08:16:39;;;;;;;;;;;;;;;4.27;42.31;102049.16;1764650;81;20252;-52
2021/03/07 08:19:10;;;;;;;;;;;;;;;4.33;42.19;102037.72;1764794;81;20843;-52
2021/03/07 08:22:00;;;;;;;;;;;;;;;4.38;41.83;102039.98;1764337;81;20491;-52
2021/03/07 08:24:48;;;;;;;;;;;;;;;4.41;42.07;102044.00;1764650;81;21381;-51
2021/03/07 08:27:39;;;;;;;;;;;;;;;4.39;42.56;102037.78;1738926;81;20252;-52
2021/03/07 08:30:08;;;;;;;;;;;;;;;4.34;42.98;102039.50;1764733;81;20224;-51
2021/03/07 08:32:41;;;;;;;;;;;;;;;4.26;43.04;102030.11;1764708;81;20221;-51
2021/03/07 08:35:21;;;;;;;;;;;;;;;4.25;42.84;102027.88;1764793;81;20245;-52
2021/03/07 08:38:11;;;;;;;;;;;;;;;4.30;42.74;102024.83;1765999;81;21457;-52
2021/03/07 08:40:39;;;;;;;;;;;;;;;4.36;42.41;102021.82;1766599;81;20153;-51
2021/03/07 08:43:26;;;;;;;;;;;;;;;4.38;41.76;102016.95;1766575;81;20224;-52
2021/03/07 08:46:10;;;;;;;;;;;;;;;4.36;42.05;102010.74;1773213;81;20219;-52
2021/03/07 08:48:39;;;;;;;;;;;;;;;4.38;42.17;102008.12;1773191;81;20228;-51
2021/03/07 08:51:07;;;;;;;;;;;;;;;4.44;42.43;102010.41;1773214;81;21198;-51
2021/03/07 08:53:36;;;;;;;;;;;;;;;4.48;42.46;101994.50;1773140;81;20263;-51
2021/03/07 08:56:05;;;;;;;;;;;;;;;4.49;41.76;102005.12;1773231;81;20228;-51
2021/03/07 08:58:32;;;;;;;;;;;;;;;4.46;41.89;102007.75;1773152;81;20228;-51
2021/03/07 09:00:59;;;;;;;;;;;;;;;4.46;41.89;102002.44;1773181;81;20219;-51
2021/03/07 09:03:28;;;;;;;;;;;;;;;4.51;41.40;101998.52;1773129;81;21143;-53
2021/03/07 09:05:55;;;;;;;;;;;;;;;4.52;41.46;101999.84;1773063;81;20220;-51
2021/03/07 09:08:25;;;;;;;;;;;;;;;4.54;41.10;101982.60;1773135;81;33446;-53
2021/03/07 09:10:55;;;;;;;;;;;;;;;4.53;40.00;101975.09;1773131;81;20299;-51
2021/03/07 09:13:24;;;;;;;;;;;;;;;4.59;39.64;101971.58;1773106;81;20212;-51
2021/03/07 09:15:57;;;;;;;;;;;;;;;4.64;39.98;101980.93;1773122;81;21220;-51
2021/03/07 09:18:28;;;;;;;;;;;;;;;4.73;40.53;101978.34;1773195;81;20594;-52
2021/03/07 09:21:01;;;;;;;;;;;;;;;4.83;40.77;101977.98;1772959;81;20220;-52
2021/03/07 09:23:32;;;;;;;;;;;;;;;4.89;40.98;101967.44;1773158;81;20360;-52
2021/03/07 09:26:00;;;;;;;;;;;;;;;4.97;41.14;101966.14;1773157;81;20219;-52
2021/03/07 09:28:29;;;;;;;;;;;;;;;4.97;40.79;101960.82;1773165;81;21203;-52
2021/03/07 09:30:58;;;;;;;;;;;;;;;4.95;40.61;101961.25;1773153;81;20220;-52
2021/03/07 09:33:28;;;;;;;;;;;;;;;5.00;40.96;101963.53;1773099;81;20240;-52
2021/03/07 09:36:09;;;;;;;;;;;;;;;5.05;40.97;101947.17;1773175;81;20220;-52
2021/03/07 09:38:45;;;;;;;;;;;;;;;5.10;40.98;101952.53;1775353;80;20220;-53
2021/03/07 09:41:13;;;;;;;;;;;;;;;5.14;40.91;101947.68;1774167;80;21107;-52
2021/03/07 09:43:43;;;;;;;;;;;;;;;5.20;40.75;101937.53;1775733;80;20813;-52
2021/03/07 09:46:11;;;;;;;;;;;;;;;5.32;40.87;101929.61;1773183;81;20216;-52
2021/03/07 09:48:39;;;;;;;;;;;;;;;5.42;40.40;101934.12;1773141;81;20240;-52
2021/03/07 09:51:13;;;;;;;;;;;;;;;5.49;39.65;101932.81;1773276;81;20390;-52
2021/03/07 09:53:41;;;;;;;;;;;;;;;5.51;39.90;101932.38;1773209;81;21276;-52
2021/03/07 09:56:22;;;;;;;;;;;;;;;5.58;40.02;101924.86;1773030;81;20240;-52
2021/03/07 09:58:49;;;;;;;;;;;;;;;5.65;39.59;101926.69;1773235;81;20516;-52
2021/03/07 10:01:16;;;;;;;;;;;;;;;5.67;39.72;101934.23;1773178;81;20336;-52
2021/03/07 10:03:45;;;;;;;;;;;;;;;5.71;39.96;101921.81;1773182;81;20255;-52
2021/03/07 10:06:16;;;;;;;;;;;;;;;5.79;39.41;101916.52;1773062;81;21383;-52
2021/03/07 10:08:45;;;;;;;;;;;;;;;5.88;38.76;101907.26;1773195;81;20227;-52
2021/03/07 10:11:23;;;;;;;;;;;;;;;5.94;38.58;101900.61;1773139;81;20496;-52
2021/03/07 10:14:02;;;;;;;;;;;;;;;6.04;38.52;101897.99;1773204;81;21022;-52
2021/03/07 10:16:32;;;;;;;;;;;;;;;6.13;38.43;101898.03;1773137;81;20216;-52
2021/03/07 10:19:03;;;;;;;;;;;;;;;6.17;38.19;101893.16;1773186;81;22234;-52
2021/03/07 10:21:31;;;;;;;;;;;;;;;6.16;37.89;101887.38;1773052;80;22115;-52
2021/03/07 10:24:07;;;;;;;;;;;;;;;6.04;38.05;101881.59;1773056;81;20240;-53
2021/03/07 10:26:38;;;;;;;;;;;;;;;6.01;38.12;101882.46;1773188;81;20282;-52
2021/03/07 10:29:20;;;;;;;;;;;;;;;5.99;37.81;101869.55;1773174;81;20220;-52
2021/03/07 10:32:05;;;;;;;;;;;;;;;5.94;37.92;101858.02;1773133;81;21490;-52
2021/03/07 10:34:41;;;;;;;;;;;;;;;5.91;38.01;101864.67;1773051;81;20220;-51
2021/03/07 10:37:09;;;;;;;;;;;;;;;5.88;38.30;101858.02;1772365;80;20223;-51
2021/03/07 10:39:36;;;;;;;;;;;;;;;5.85;38.22;101855.31;1767459;81;20228;-51
2021/03/07 10:42:12;;;;;;;;;;;;;;;5.84;38.61;101861.52;1767504;81;20272;-52
2021/03/07 10:44:40;;;;;;;;;;;;;;;5.90;38.59;101847.35;1750165;81;21402;-52
2021/03/07 10:47:16;;;;;;;;;;;;;;;5.97;38.32;101836.72;1737122;82;20211;-51
2021/03/07 10:49:46;;;;;;;;;;;;;;;6.02;38.20;101841.63;1737134;82;20214;-52
2021/03/07 10:52:14;;;;;;;;;;;;;;;6.02;38.29;101828.32;1765890;81;20927;-51
2021/03/07 10:54:43;;;;;;;;;;;;;;;5.97;38.15;101826.53;1765889;81;20239;-52
2021/03/07 10:57:15;;;;;;;;;;;;;;;5.92;38.62;101817.20;1736459;81;21160;-51
2021/03/07 10:59:50;;;;;;;;;;;;;;;5.89;38.76;101818.53;1765861;81;20302;-52
2021/03/07 11:02:12;;;;;;;;;;;;;;;5.86;38.69;101812.75;1764986;81;20227;-52
2021/03/07 11:04:40;;;;;;;;;;;;;;;5.79;38.82;101798.09;1765862;81;20227;-51
2021/03/07 11:07:07;;;;;;;;;;;;;;;5.74;39.11;101794.08;1765918;81;20239;-51
2021/03/07 11:09:35;;;;;;;;;;;;;;;5.72;39.45;101783.45;1765924;81;21201;-52
2021/03/07 11:12:03;;;;;;;;;;;;;;;5.73;39.79;101775.91;1765862;81;20236;-52
2021/03/07 11:14:30;;;;;;;;;;;;;;;5.67;39.81;101762.60;1765932;81;20248;-52
2021/03/07 11:16:59;;;;;;;;;;;;;;;5.63;40.22;101764.78;1765764;81;20231;-51
2021/03/07 11:19:28;;;;;;;;;;;;;;;5.59;39.89;101756.36;1765973;81;20235;-52
2021/03/07 11:22:15;;;;;;;;;;;;;;;5.55;39.94;101745.27;1765867;81;21273;-51
2021/03/07 11:24:59;;;;;;;;;;;;;;;5.52;40.31;101742.61;1739036;81;20227;-51
2021/03/07 11:27:27;;;;;;;;;;;;;;;5.52;40.17;101734.63;1765817;81;20267;-52
2021/03/07 11:29:54;;;;;;;;;;;;;;;5.55;39.62;101734.63;1765883;81;20278;-52
2021/03/07 11:32:21;;;;;;;;;;;;;;;5.58;38.84;101726.66;1765891;81;20248;-52
2021/03/07 11:34:49;;;;;;;;;;;;;;;5.57;38.82;101719.55;1765882;81;21132;-52
2021/03/07 11:37:16;;;;;;;;;;;;;;;5.55;38.09;101729.31;1765666;80;20235;-52
2021/03/07 11:39:44;;;;;;;;;;;;;;;5.54;38.08;101719.55;1765850;81;20252;-51
2021/03/07 11:42:11;;;;;;;;;;;;;;;5.52;38.10;101722.20;1765843;81;20172;-51
2021/03/07 11:44:39;;;;;;;;;;;;;;;5.49;38.28;101707.56;1763832;81;20152;-52
2021/03/07 11:47:06;;;;;;;;;;;;;;;5.45;38.51;101704.46;1772475;81;21403;-52
2021/03/07 11:49:35;;;;;;;;;;;;;;;5.41;38.66;101702.23;1771482;81;20256;-53
2021/03/07 11:52:04;;;;;;;;;;;;;;;5.42;38.78;101696.05;1772379;81;20236;-52
2021/03/07 11:54:31;;;;;;;;;;;;;;;5.46;38.48;101690.28;1772402;81;20999;-53
2021/03/07 11:56:58;;;;;;;;;;;;;;;5.48;38.19;101695.61;1772492;81;20216;-53
2021/03/07 11:59:28;;;;;;;;;;;;;;;5.52;38.40;101694.73;1772322;81;21208;-53
2021/03/07 12:01:55;;;;;;;;;;;;;;;5.55;38.58;101677.00;1772338;81;20280;-52
2021/03/07 12:04:23;;;;;;;;;;;;;;;5.62;38.79;101669.89;1772411;81;20235;-51
2021/03/07 12:06:50;;;;;;;;;;;;;;;5.63;38.72;101665.02;1772349;81;20156;-52
2021/03/07 12:09:17;;;;;;;;;;;;;;;5.63;38.91;101661.02;1772437;81;20244;-52
2021/03/07 12:11:45;;;;;;;;;;;;;;;5.63;38.78;101658.82;1772374;81;21214;-52
2021/03/07 12:14:12;;;;;;;;;;;;;;;5.62;38.86;101655.25;1772364;81;20216;-52
2021/03/07 12:16:39;;;;;;;;;;;;;;;5.64;39.00;101653.94;1772424;81;20220;-51
2021/03/07 12:19:08;;;;;;;;;;;;;;;5.61;39.07;101646.83;1772496;81;20236;-52
2021/03/07 12:21:35;;;;;;;;;;;;;;;5.59;39.38;101637.97;1772342;81;20260;-51
2021/03/07 12:24:04;;;;;;;;;;;;;;;5.63;39.78;101644.19;1772435;81;21217;-52
2021/03/07 12:26:31;;;;;;;;;;;;;;;5.69;39.98;101631.77;1772436;81;20783;-52
2021/03/07 12:28:58;;;;;;;;;;;;;;;5.82;39.66;101629.08;1772494;81;20521;-52
2021/03/07 12:31:25;;;;;;;;;;;;;;;5.87;39.27;101632.66;1772390;81;20307;-52
2021/03/07 12:33:52;;;;;;;;;;;;;;;5.92;39.17;101618.88;1772491;81;20290;-52
2021/03/07 12:36:20;;;;;;;;;;;;;;;5.96;39.25;101611.33;1772410;81;21255;-52
2021/03/07 12:38:47;;;;;;;;;;;;;;;5.98;38.86;101601.56;1772203;81;20271;-52
2021/03/07 12:41:14;;;;;;;;;;;;;;;5.99;39.00;101603.33;1772441;81;20263;-53
2021/03/07 12:43:41;;;;;;;;;;;;;;;6.02;38.91;101599.82;1772346;81;20212;-52
2021/03/07 12:46:09;;;;;;;;;;;;;;;6.06;38.81;101600.67;1773022;81;20224;-52
2021/03/07 12:48:36;;;;;;;;;;;;;;;6.10;38.86;101593.16;1772851;81;21490;-52
2021/03/07 12:51:05;;;;;;;;;;;;;;;6.11;38.97;101585.60;1772892;81;20238;-51
2021/03/07 12:53:32;;;;;;;;;;;;;;;6.12;38.65;101586.91;1772852;81;20236;-52
2021/03/07 12:56:00;;;;;;;;;;;;;;;6.10;38.49;101580.70;1772956;81;20113;-52
2021/03/07 12:58:28;;;;;;;;;;;;;;;6.08;38.48;101578.92;1772851;81;20228;-52